sensor_id;sensor_type;location;lat;lon;timestamp;temperature;humidity
75824;DHT22;64457;51.976;9.834;2024-01-10T00:00:43;-3.50;85.30
75824;DHT22;64457;51.976;9.834;2024-01-10T00:03:11;-3.40;84.20
75824;DHT22;64457;51.976;9.834;2024-01-10T00:05:40;-3.30;84.00
75824;DHT22;64457;51.976;9.834;2024-01-10T00:08:08;-3.40;83.70
75824;DHT22;64457;51.976;9.834;2024-01-10T00:10:35;-3.50;84.10
75824;DHT22;64457;51.976;9.834;2024-01-10T00:13:03;-3.40;84.30
75824;DHT22;64457;51.976;9.834;2024-01-10T00:15:31;-3.40;84.10
75824;DHT22;64457;51.976;9.834;2024-01-10T00:17:59;-3.40;84.30
75824;DHT22;64457;51.976;9.834;2024-01-10T00:20:27;-3.30;84.20
75824;DHT22;64457;51.976;9.834;2024-01-10T00:22:57;-3.20;83.60
75824;DHT22;64457;51.976;9.834;2024-01-10T00:25:25;-3.10;82.60
75824;DHT22;64457;51.976;9.834;2024-01-10T00:27:53;-3.10;82.70
75824;DHT22;64457;51.976;9.834;2024-01-10T00:30:21;-3.00;82.30
75824;DHT22;64457;51.976;9.834;2024-01-10T00:32:49;-3.10;82.40
75824;DHT22;64457;51.976;9.834;2024-01-10T00:35:18;-3.10;83.40
75824;DHT22;64457;51.976;9.834;2024-01-10T00:37:46;-3.00;82.40
75824;DHT22;64457;51.976;9.834;2024-01-10T00:40:15;-3.00;81.90
75824;DHT22;64457;51.976;9.834;2024-01-10T00:42:43;-3.20;81.30
75824;DHT22;64457;51.976;9.834;2024-01-10T00:45:11;-3.40;82.40
75824;DHT22;64457;51.976;9.834;2024-01-10T00:47:39;-3.50;82.60
75824;DHT22;64457;51.976;9.834;2024-01-10T00:50:07;-3.50;82.90
75824;DHT22;64457;51.976;9.834;2024-01-10T00:52:36;-3.60;83.10
75824;DHT22;64457;51.976;9.834;2024-01-10T00:55:04;-3.60;83.40
75824;DHT22;64457;51.976;9.834;2024-01-10T00:57:34;-3.60;83.20
75824;DHT22;64457;51.976;9.834;2024-01-10T01:00:04;-3.50;83.30
75824;DHT22;64457;51.976;9.834;2024-01-10T01:02:35;-3.40;82.30
75824;DHT22;64457;51.976;9.834;2024-01-10T01:05:06;-3.50;82.50
75824;DHT22;64457;51.976;9.834;2024-01-10T01:07:35;-3.40;82.70
75824;DHT22;64457;51.976;9.834;2024-01-10T01:10:04;-3.30;82.40
75824;DHT22;64457;51.976;9.834;2024-01-10T01:12:36;-3.40;82.10
75824;DHT22;64457;51.976;9.834;2024-01-10T01:15:05;-3.50;82.30
75824;DHT22;64457;51.976;9.834;2024-01-10T01:17:36;-3.50;82.50
75824;DHT22;64457;51.976;9.834;2024-01-10T01:20:05;-3.50;82.60
75824;DHT22;64457;51.976;9.834;2024-01-10T01:22:35;-3.60;82.50
75824;DHT22;64457;51.976;9.834;2024-01-10T01:25:05;-3.80;83.60
75824;DHT22;64457;51.976;9.834;2024-01-10T01:27:36;-3.70;83.80
75824;DHT22;64457;51.976;9.834;2024-01-10T01:30:04;-3.60;83.20
75824;DHT22;64457;51.976;9.834;2024-01-10T01:32:37;-3.60;83.00
75824;DHT22;64457;51.976;9.834;2024-01-10T01:35:07;-3.70;83.50
75824;DHT22;64457;51.976;9.834;2024-01-10T01:37:35;-3.60;83.60
75824;DHT22;64457;51.976;9.834;2024-01-10T01:40:05;-3.50;83.50
75824;DHT22;64457;51.976;9.834;2024-01-10T01:42:36;-3.60;82.90
75824;DHT22;64457;51.976;9.834;2024-01-10T01:45:04;-3.70;83.40
75824;DHT22;64457;51.976;9.834;2024-01-10T01:47:35;-3.70;83.30
75824;DHT22;64457;51.976;9.834;2024-01-10T01:50:03;-3.80;83.80
75824;DHT22;64457;51.976;9.834;2024-01-10T01:52:31;-3.80;83.50
75824;DHT22;64457;51.976;9.834;2024-01-10T01:55:00;-3.90;84.00
75824;DHT22;64457;51.976;9.834;2024-01-10T01:57:31;-3.80;84.10
75824;DHT22;64457;51.976;9.834;2024-01-10T02:00:00;-3.80;83.60
75824;DHT22;64457;51.976;9.834;2024-01-10T02:02:29;-3.70;83.40
75824;DHT22;64457;51.976;9.834;2024-01-10T02:04:58;-3.80;82.90
75824;DHT22;64457;51.976;9.834;2024-01-10T02:07:26;-4.10;84.50
75824;DHT22;64457;51.976;9.834;2024-01-10T02:09:55;-4.00;84.90
75824;DHT22;64457;51.976;9.834;2024-01-10T02:12:24;-4.10;85.10
75824;DHT22;64457;51.976;9.834;2024-01-10T02:14:52;-4.10;85.00
75824;DHT22;64457;51.976;9.834;2024-01-10T02:17:22;-4.00;84.80
75824;DHT22;64457;51.976;9.834;2024-01-10T02:19:49;-4.10;84.60
75824;DHT22;64457;51.976;9.834;2024-01-10T02:22:17;-4.10;85.30
75824;DHT22;64457;51.976;9.834;2024-01-10T02:24:45;-4.00;85.30
75824;DHT22;64457;51.976;9.834;2024-01-10T02:27:14;-3.90;85.20
75824;DHT22;64457;51.976;9.834;2024-01-10T02:29:43;-3.90;84.60
75824;DHT22;64457;51.976;9.834;2024-01-10T02:32:10;-4.00;84.40
75824;DHT22;64457;51.976;9.834;2024-01-10T02:34:38;-4.00;84.90
75824;DHT22;64457;51.976;9.834;2024-01-10T02:37:06;-3.90;85.10
75824;DHT22;64457;51.976;9.834;2024-01-10T02:39:33;-3.90;84.80
75824;DHT22;64457;51.976;9.834;2024-01-10T02:42:01;-4.00;85.10
75824;DHT22;64457;51.976;9.834;2024-01-10T02:44:30;-4.00;84.60
75824;DHT22;64457;51.976;9.834;2024-01-10T02:46:58;-4.00;85.10
75824;DHT22;64457;51.976;9.834;2024-01-10T02:49:26;-3.90;85.10
75824;DHT22;64457;51.976;9.834;2024-01-10T02:51:53;-3.90;84.90
75824;DHT22;64457;51.976;9.834;2024-01-10T02:54:21;-3.90;84.80
75824;DHT22;64457;51.976;9.834;2024-01-10T02:56:49;-3.90;84.90
75824;DHT22;64457;51.976;9.834;2024-01-10T02:59:17;-3.90;85.10
75824;DHT22;64457;51.976;9.834;2024-01-10T03:01:47;-4.00;85.00
75824;DHT22;64457;51.976;9.834;2024-01-10T03:04:16;-4.00;85.30
75824;DHT22;64457;51.976;9.834;2024-01-10T03:06:44;-3.90;85.60
75824;DHT22;64457;51.976;9.834;2024-01-10T03:09:12;-4.00;85.80
75824;DHT22;64457;51.976;9.834;2024-01-10T03:11:40;-4.10;85.90
75824;DHT22;64457;51.976;9.834;2024-01-10T03:14:09;-4.20;86.50
75824;DHT22;64457;51.976;9.834;2024-01-10T03:16:37;-4.20;86.80
75824;DHT22;64457;51.976;9.834;2024-01-10T03:19:06;-4.10;86.80
75824;DHT22;64457;51.976;9.834;2024-01-10T03:21:35;-4.20;86.90
75824;DHT22;64457;51.976;9.834;2024-01-10T03:24:03;-4.10;87.10
75824;DHT22;64457;51.976;9.834;2024-01-10T03:26:31;-4.30;87.30
75824;DHT22;64457;51.976;9.834;2024-01-10T03:29:01;-4.40;87.70
75824;DHT22;64457;51.976;9.834;2024-01-10T03:31:29;-4.30;88.10
75824;DHT22;64457;51.976;9.834;2024-01-10T03:33:58;-4.30;88.50
75824;DHT22;64457;51.976;9.834;2024-01-10T03:36:29;-4.20;88.50
75824;DHT22;64457;51.976;9.834;2024-01-10T03:38:57;-4.40;88.70
75824;DHT22;64457;51.976;9.834;2024-01-10T03:41:25;-4.50;90.10
75824;DHT22;64457;51.976;9.834;2024-01-10T03:43:53;-4.30;90.00
75824;DHT22;64457;51.976;9.834;2024-01-10T03:46:20;-4.20;89.90
75824;DHT22;64457;51.976;9.834;2024-01-10T03:48:48;-4.10;88.90
75824;DHT22;64457;51.976;9.834;2024-01-10T03:51:18;-4.10;88.90
75824;DHT22;64457;51.976;9.834;2024-01-10T03:53:49;-4.20;88.70
75824;DHT22;64457;51.976;9.834;2024-01-10T03:56:18;-4.10;89.00
75824;DHT22;64457;51.976;9.834;2024-01-10T03:58:47;-4.10;89.20
75824;DHT22;64457;51.976;9.834;2024-01-10T04:01:15;-4.10;89.30
75824;DHT22;64457;51.976;9.834;2024-01-10T04:03:42;-4.20;89.90
75824;DHT22;64457;51.976;9.834;2024-01-10T04:06:10;-4.30;90.10
75824;DHT22;64457;51.976;9.834;2024-01-10T04:08:38;-4.10;90.00
75824;DHT22;64457;51.976;9.834;2024-01-10T04:11:08;-4.10;90.10
75824;DHT22;64457;51.976;9.834;2024-01-10T04:13:36;-4.00;89.10
75824;DHT22;64457;51.976;9.834;2024-01-10T04:16:06;-4.00;89.40
75824;DHT22;64457;51.976;9.834;2024-01-10T04:18:34;-3.90;89.20
75824;DHT22;64457;51.976;9.834;2024-01-10T04:21:02;-3.90;89.30
75824;DHT22;64457;51.976;9.834;2024-01-10T04:23:30;-3.90;89.30
75824;DHT22;64457;51.976;9.834;2024-01-10T04:26:00;-3.80;88.60
75824;DHT22;64457;51.976;9.834;2024-01-10T04:28:30;-3.70;88.00
75824;DHT22;64457;51.976;9.834;2024-01-10T04:30:58;-3.70;87.30
75824;DHT22;64457;51.976;9.834;2024-01-10T04:33:27;-3.70;87.40
75824;DHT22;64457;51.976;9.834;2024-01-10T04:35:54;-3.60;87.50
75824;DHT22;64457;51.976;9.834;2024-01-10T04:38:22;-3.70;86.90
75824;DHT22;64457;51.976;9.834;2024-01-10T04:40:52;-3.70;88.00
75824;DHT22;64457;51.976;9.834;2024-01-10T04:43:20;-3.80;88.20
75824;DHT22;64457;51.976;9.834;2024-01-10T04:45:50;-3.70;87.20
75824;DHT22;64457;51.976;9.834;2024-01-10T04:48:17;-3.80;87.50
75824;DHT22;64457;51.976;9.834;2024-01-10T04:50:45;-3.70;87.80
75824;DHT22;64457;51.976;9.834;2024-01-10T04:53:13;-3.70;88.60
75824;DHT22;64457;51.976;9.834;2024-01-10T04:55:41;-3.70;88.20
75824;DHT22;64457;51.976;9.834;2024-01-10T04:58:09;-3.80;88.20
75824;DHT22;64457;51.976;9.834;2024-01-10T05:00:36;-3.70;88.50
75824;DHT22;64457;51.976;9.834;2024-01-10T05:03:07;-3.60;88.00
75824;DHT22;64457;51.976;9.834;2024-01-10T05:05:34;-3.70;86.60
75824;DHT22;64457;51.976;9.834;2024-01-10T05:08:02;-3.90;87.10
75824;DHT22;64457;51.976;9.834;2024-01-10T05:10:30;-4.00;87.50
75824;DHT22;64457;51.976;9.834;2024-01-10T05:12:58;-4.00;88.00
75824;DHT22;64457;51.976;9.834;2024-01-10T05:15:26;-4.00;88.00
75824;DHT22;64457;51.976;9.834;2024-01-10T05:17:54;-4.00;88.20
75824;DHT22;64457;51.976;9.834;2024-01-10T05:20:23;-3.90;87.90
75824;DHT22;64457;51.976;9.834;2024-01-10T05:22:50;-3.80;87.60
75824;DHT22;64457;51.976;9.834;2024-01-10T05:25:18;-3.80;87.30
75824;DHT22;64457;51.976;9.834;2024-01-10T05:27:45;-3.80;86.20
75824;DHT22;64457;51.976;9.834;2024-01-10T05:30:13;-3.80;86.60
75824;DHT22;64457;51.976;9.834;2024-01-10T05:32:44;-3.80;86.70
75824;DHT22;64457;51.976;9.834;2024-01-10T05:35:12;-3.80;86.30
75824;DHT22;64457;51.976;9.834;2024-01-10T05:37:41;-3.70;86.50
75824;DHT22;64457;51.976;9.834;2024-01-10T05:40:09;-3.80;86.20
75824;DHT22;64457;51.976;9.834;2024-01-10T05:42:37;-3.80;86.20
75824;DHT22;64457;51.976;9.834;2024-01-10T05:45:06;-3.90;86.20
75824;DHT22;64457;51.976;9.834;2024-01-10T05:47:34;-3.90;86.90
75824;DHT22;64457;51.976;9.834;2024-01-10T05:50:03;-4.00;86.60
75824;DHT22;64457;51.976;9.834;2024-01-10T05:52:32;-3.90;86.90
75824;DHT22;64457;51.976;9.834;2024-01-10T05:55:01;-3.90;86.70
75824;DHT22;64457;51.976;9.834;2024-01-10T05:57:29;-3.90;86.40
75824;DHT22;64457;51.976;9.834;2024-01-10T05:59:58;-3.90;86.30
75824;DHT22;64457;51.976;9.834;2024-01-10T06:02:26;-3.90;86.00
75824;DHT22;64457;51.976;9.834;2024-01-10T06:04:54;-3.90;86.40
75824;DHT22;64457;51.976;9.834;2024-01-10T06:07:21;-3.90;86.50
75824;DHT22;64457;51.976;9.834;2024-01-10T06:09:50;-4.00;86.60
75824;DHT22;64457;51.976;9.834;2024-01-10T06:12:19;-4.10;87.80
75824;DHT22;64457;51.976;9.834;2024-01-10T06:14:49;-4.10;87.10
75824;DHT22;64457;51.976;9.834;2024-01-10T06:17:16;-4.10;86.90
75824;DHT22;64457;51.976;9.834;2024-01-10T06:19:47;-4.10;87.00
75824;DHT22;64457;51.976;9.834;2024-01-10T06:22:14;-4.20;87.00
75824;DHT22;64457;51.976;9.834;2024-01-10T06:24:42;-4.20;87.50
75824;DHT22;64457;51.976;9.834;2024-01-10T06:27:10;-4.40;88.10
75824;DHT22;64457;51.976;9.834;2024-01-10T06:29:39;-4.40;88.30
75824;DHT22;64457;51.976;9.834;2024-01-10T06:32:06;-4.40;88.80
75824;DHT22;64457;51.976;9.834;2024-01-10T06:34:34;-4.40;88.70
75824;DHT22;64457;51.976;9.834;2024-01-10T06:37:02;-4.40;88.70
75824;DHT22;64457;51.976;9.834;2024-01-10T06:39:30;-4.50;88.90
75824;DHT22;64457;51.976;9.834;2024-01-10T06:41:57;-4.60;90.30
75824;DHT22;64457;51.976;9.834;2024-01-10T06:44:25;-4.60;90.30
75824;DHT22;64457;51.976;9.834;2024-01-10T06:46:58;-4.50;90.30
75824;DHT22;64457;51.976;9.834;2024-01-10T06:49:26;-4.50;89.70
75824;DHT22;64457;51.976;9.834;2024-01-10T06:51:54;-4.50;90.00
75824;DHT22;64457;51.976;9.834;2024-01-10T06:54:22;-4.40;90.40
75824;DHT22;64457;51.976;9.834;2024-01-10T06:56:50;-4.30;89.80
75824;DHT22;64457;51.976;9.834;2024-01-10T06:59:17;-4.20;89.30
75824;DHT22;64457;51.976;9.834;2024-01-10T07:01:45;-4.20;88.90
75824;DHT22;64457;51.976;9.834;2024-01-10T07:04:20;-4.10;88.70
75824;DHT22;64457;51.976;9.834;2024-01-10T07:06:50;-4.10;88.70
75824;DHT22;64457;51.976;9.834;2024-01-10T07:09:18;-4.20;88.50
75824;DHT22;64457;51.976;9.834;2024-01-10T07:11:46;-4.20;90.00
75824;DHT22;64457;51.976;9.834;2024-01-10T07:14:14;-4.20;89.90
75824;DHT22;64457;51.976;9.834;2024-01-10T07:16:43;-4.10;89.60
75824;DHT22;64457;51.976;9.834;2024-01-10T07:19:11;-4.10;88.00
75824;DHT22;64457;51.976;9.834;2024-01-10T07:21:42;-4.20;88.70
75824;DHT22;64457;51.976;9.834;2024-01-10T07:24:10;-4.20;89.30
75824;DHT22;64457;51.976;9.834;2024-01-10T07:26:39;-4.10;89.10
75824;DHT22;64457;51.976;9.834;2024-01-10T07:29:07;-4.00;88.50
75824;DHT22;64457;51.976;9.834;2024-01-10T07:31:35;-4.10;87.80
75824;DHT22;64457;51.976;9.834;2024-01-10T07:34:03;-4.20;88.50
75824;DHT22;64457;51.976;9.834;2024-01-10T07:36:32;-4.10;88.40
75824;DHT22;64457;51.976;9.834;2024-01-10T07:39:02;-4.20;88.30
75824;DHT22;64457;51.976;9.834;2024-01-10T07:41:31;-4.10;88.20
75824;DHT22;64457;51.976;9.834;2024-01-10T07:44:02;-4.00;87.80
75824;DHT22;64457;51.976;9.834;2024-01-10T07:46:30;-3.90;87.80
75824;DHT22;64457;51.976;9.834;2024-01-10T07:49:00;-4.00;86.70
75824;DHT22;64457;51.976;9.834;2024-01-10T07:51:28;-4.00;87.00
75824;DHT22;64457;51.976;9.834;2024-01-10T07:53:57;-4.20;86.50
75824;DHT22;64457;51.976;9.834;2024-01-10T07:56:27;-4.30;87.40
75824;DHT22;64457;51.976;9.834;2024-01-10T07:58:55;-4.40;87.60
75824;DHT22;64457;51.976;9.834;2024-01-10T08:01:23;-4.50;87.40
75824;DHT22;64457;51.976;9.834;2024-01-10T08:03:51;-4.60;88.10
75824;DHT22;64457;51.976;9.834;2024-01-10T08:06:19;-4.90;89.40
75824;DHT22;64457;51.976;9.834;2024-01-10T08:08:47;-4.80;90.30
75824;DHT22;64457;51.976;9.834;2024-01-10T08:11:15;-4.50;90.10
75824;DHT22;64457;51.976;9.834;2024-01-10T08:13:45;-4.40;90.00
75824;DHT22;64457;51.976;9.834;2024-01-10T08:16:13;-4.10;89.50
75824;DHT22;64457;51.976;9.834;2024-01-10T08:18:41;-4.00;88.50
75824;DHT22;64457;51.976;9.834;2024-01-10T08:21:09;-3.90;88.00
75824;DHT22;64457;51.976;9.834;2024-01-10T08:23:36;-3.90;87.00
75824;DHT22;64457;51.976;9.834;2024-01-10T08:26:06;-3.90;87.30
75824;DHT22;64457;51.976;9.834;2024-01-10T08:28:36;-3.80;87.50
75824;DHT22;64457;51.976;9.834;2024-01-10T08:31:05;-3.70;87.30
75824;DHT22;64457;51.976;9.834;2024-01-10T08:33:33;-3.60;86.80
75824;DHT22;64457;51.976;9.834;2024-01-10T08:36:01;-3.50;86.30
75824;DHT22;64457;51.976;9.834;2024-01-10T08:38:29;-3.40;87.00
75824;DHT22;64457;51.976;9.834;2024-01-10T08:40:57;-3.30;87.10
75824;DHT22;64457;51.976;9.834;2024-01-10T08:43:25;-3.30;86.00
75824;DHT22;64457;51.976;9.834;2024-01-10T08:45:53;-3.20;86.40
75824;DHT22;64457;51.976;9.834;2024-01-10T08:48:22;-3.20;86.00
75824;DHT22;64457;51.976;9.834;2024-01-10T08:50:52;-3.10;86.00
75824;DHT22;64457;51.976;9.834;2024-01-10T08:53:21;-3.10;85.40
75824;DHT22;64457;51.976;9.834;2024-01-10T08:55:51;-3.00;85.50
75824;DHT22;64457;51.976;9.834;2024-01-10T08:58:19;-3.00;85.20
75824;DHT22;64457;51.976;9.834;2024-01-10T09:00:48;-2.90;85.00
75824;DHT22;64457;51.976;9.834;2024-01-10T09:03:17;-2.90;84.20
75824;DHT22;64457;51.976;9.834;2024-01-10T09:05:48;-3.00;84.60
75824;DHT22;64457;51.976;9.834;2024-01-10T09:08:16;-3.10;85.30
75824;DHT22;64457;51.976;9.834;2024-01-10T09:10:45;-3.10;86.00
75824;DHT22;64457;51.976;9.834;2024-01-10T09:13:15;-3.10;84.50
75824;DHT22;64457;51.976;9.834;2024-01-10T09:15:43;-3.10;84.80
75824;DHT22;64457;51.976;9.834;2024-01-10T09:18:11;-3.00;85.90
75824;DHT22;64457;51.976;9.834;2024-01-10T09:20:39;-2.90;85.90
75824;DHT22;64457;51.976;9.834;2024-01-10T09:23:09;-2.70;85.80
75824;DHT22;64457;51.976;9.834;2024-01-10T09:25:37;-2.80;85.70
75824;DHT22;64457;51.976;9.834;2024-01-10T09:28:06;-2.90;86.80
75824;DHT22;64457;51.976;9.834;2024-01-10T09:30:34;-2.90;87.00
75824;DHT22;64457;51.976;9.834;2024-01-10T09:33:02;-2.80;87.80
75824;DHT22;64457;51.976;9.834;2024-01-10T09:35:30;-2.60;87.30
75824;DHT22;64457;51.976;9.834;2024-01-10T09:37:58;-2.50;86.70
75824;DHT22;64457;51.976;9.834;2024-01-10T09:40:28;-2.40;86.50
75824;DHT22;64457;51.976;9.834;2024-01-10T09:42:56;-2.20;86.70
75824;DHT22;64457;51.976;9.834;2024-01-10T09:45:25;-2.10;86.50
75824;DHT22;64457;51.976;9.834;2024-01-10T09:47:57;-2.10;85.90
75824;DHT22;64457;51.976;9.834;2024-01-10T09:50:24;-2.10;85.70
75824;DHT22;64457;51.976;9.834;2024-01-10T09:52:58;-1.90;85.30
75824;DHT22;64457;51.976;9.834;2024-01-10T09:55:34;-1.80;84.60
75824;DHT22;64457;51.976;9.834;2024-01-10T09:58:03;-1.70;83.70
75824;DHT22;64457;51.976;9.834;2024-01-10T10:00:33;-1.70;83.10
75824;DHT22;64457;51.976;9.834;2024-01-10T10:03:02;-1.80;83.40
75824;DHT22;64457;51.976;9.834;2024-01-10T10:05:32;-1.70;83.50
75824;DHT22;64457;51.976;9.834;2024-01-10T10:08:00;-1.60;83.50
75824;DHT22;64457;51.976;9.834;2024-01-10T10:10:30;-1.60;83.20
75824;DHT22;64457;51.976;9.834;2024-01-10T10:12:58;-1.70;84.20
75824;DHT22;64457;51.976;9.834;2024-01-10T10:15:26;-1.70;84.60
75824;DHT22;64457;51.976;9.834;2024-01-10T10:17:54;-1.50;84.10
75824;DHT22;64457;51.976;9.834;2024-01-10T10:20:23;-1.50;84.20
75824;DHT22;64457;51.976;9.834;2024-01-10T10:23:00;-1.40;84.30
75824;DHT22;64457;51.976;9.834;2024-01-10T10:25:32;-1.40;83.90
75824;DHT22;64457;51.976;9.834;2024-01-10T10:28:01;-1.30;84.30
75824;DHT22;64457;51.976;9.834;2024-01-10T10:30:32;-1.10;83.90
75824;DHT22;64457;51.976;9.834;2024-01-10T10:33:01;-1.00;83.90
75824;DHT22;64457;51.976;9.834;2024-01-10T10:35:29;-1.00;82.70
75824;DHT22;64457;51.976;9.834;2024-01-10T10:37:59;-1.00;82.30
75824;DHT22;64457;51.976;9.834;2024-01-10T10:40:27;-1.00;81.80
75824;DHT22;64457;51.976;9.834;2024-01-10T10:42:57;-1.20;82.40
75824;DHT22;64457;51.976;9.834;2024-01-10T10:45:25;-1.10;82.60
75824;DHT22;64457;51.976;9.834;2024-01-10T10:47:57;-1.20;83.50
75824;DHT22;64457;51.976;9.834;2024-01-10T10:50:28;-1.20;83.20
75824;DHT22;64457;51.976;9.834;2024-01-10T10:53:02;-1.00;83.20
75824;DHT22;64457;51.976;9.834;2024-01-10T10:55:31;-0.90;82.90
75824;DHT22;64457;51.976;9.834;2024-01-10T10:58:03;-0.80;83.00
75824;DHT22;64457;51.976;9.834;2024-01-10T11:00:32;-0.60;82.50
75824;DHT22;64457;51.976;9.834;2024-01-10T11:03:03;-0.90;81.90
75824;DHT22;64457;51.976;9.834;2024-01-10T11:05:32;-1.00;82.60
75824;DHT22;64457;51.976;9.834;2024-01-10T11:08:03;-0.70;82.40
75824;DHT22;64457;51.976;9.834;2024-01-10T11:10:34;-0.50;82.20
75824;DHT22;64457;51.976;9.834;2024-01-10T11:13:27;-0.40;81.50
75824;DHT22;64457;51.976;9.834;2024-01-10T11:22:20;-0.60;82.10
75824;DHT22;64457;51.976;9.834;2024-01-10T11:24:56;-0.40;81.40
75824;DHT22;64457;51.976;9.834;2024-01-10T11:27:23;-0.10;80.60
75824;DHT22;64457;51.976;9.834;2024-01-10T11:29:56;0.00;80.20
75824;DHT22;64457;51.976;9.834;2024-01-10T11:32:25;0.10;79.60
75824;DHT22;64457;51.976;9.834;2024-01-10T11:34:57;0.10;79.20
75824;DHT22;64457;51.976;9.834;2024-01-10T11:37:31;0.10;78.80
75824;DHT22;64457;51.976;9.834;2024-01-10T11:40:08;0.10;78.70
75824;DHT22;64457;51.976;9.834;2024-01-10T11:42:44;0.00;79.50
75824;DHT22;64457;51.976;9.834;2024-01-10T11:45:36;0.00;79.80
75824;DHT22;64457;51.976;9.834;2024-01-10T11:48:07;0.20;80.00
75824;DHT22;64457;51.976;9.834;2024-01-10T11:50:35;0.30;78.70
75824;DHT22;64457;51.976;9.834;2024-01-10T11:53:04;0.00;79.80
75824;DHT22;64457;51.976;9.834;2024-01-10T11:55:47;0.00;80.50
75824;DHT22;64457;51.976;9.834;2024-01-10T11:58:16;-0.30;81.10
75824;DHT22;64457;51.976;9.834;2024-01-10T12:00:48;-0.20;81.70
75824;DHT22;64457;51.976;9.834;2024-01-10T12:03:16;-0.20;80.20
75824;DHT22;64457;51.976;9.834;2024-01-10T12:05:45;-0.10;80.70
75824;DHT22;64457;51.976;9.834;2024-01-10T12:08:12;0.20;79.40
75824;DHT22;64457;51.976;9.834;2024-01-10T12:10:41;0.20;79.00
75824;DHT22;64457;51.976;9.834;2024-01-10T12:13:09;0.10;78.90
75824;DHT22;64457;51.976;9.834;2024-01-10T12:15:38;0.40;78.70
75824;DHT22;64457;51.976;9.834;2024-01-10T12:18:08;0.50;78.40
75824;DHT22;64457;51.976;9.834;2024-01-10T12:20:37;0.50;77.30
75824;DHT22;64457;51.976;9.834;2024-01-10T12:23:05;0.60;77.90
75824;DHT22;64457;51.976;9.834;2024-01-10T12:25:34;0.80;78.50
75824;DHT22;64457;51.976;9.834;2024-01-10T12:28:04;1.00;76.60
75824;DHT22;64457;51.976;9.834;2024-01-10T12:30:32;0.90;76.30
75824;DHT22;64457;51.976;9.834;2024-01-10T12:33:02;0.60;77.30
75824;DHT22;64457;51.976;9.834;2024-01-10T12:35:33;1.00;77.30
75824;DHT22;64457;51.976;9.834;2024-01-10T12:38:01;1.00;76.60
75824;DHT22;64457;51.976;9.834;2024-01-10T12:40:29;1.40;76.10
75824;DHT22;64457;51.976;9.834;2024-01-10T12:43:04;1.20;74.60
75824;DHT22;64457;51.976;9.834;2024-01-10T12:45:35;1.20;75.30
75824;DHT22;64457;51.976;9.834;2024-01-10T12:48:04;0.90;75.30
75824;DHT22;64457;51.976;9.834;2024-01-10T12:50:35;0.90;75.70
75824;DHT22;64457;51.976;9.834;2024-01-10T12:53:04;1.00;76.10
75824;DHT22;64457;51.976;9.834;2024-01-10T12:55:31;1.30;76.60
75824;DHT22;64457;51.976;9.834;2024-01-10T12:57:59;1.60;77.30
75824;DHT22;64457;51.976;9.834;2024-01-10T13:00:30;1.80;78.10
75824;DHT22;64457;51.976;9.834;2024-01-10T13:03:00;2.00;77.00
75824;DHT22;64457;51.976;9.834;2024-01-10T13:05:29;2.30;79.20
75824;DHT22;64457;51.976;9.834;2024-01-10T13:07:59;2.50;74.10
75824;DHT22;64457;51.976;9.834;2024-01-10T13:10:26;2.50;72.90
75824;DHT22;64457;51.976;9.834;2024-01-10T13:12:54;2.80;70.40
75824;DHT22;64457;51.976;9.834;2024-01-10T13:15:23;2.80;68.50
75824;DHT22;64457;51.976;9.834;2024-01-10T13:17:51;2.70;73.10
75824;DHT22;64457;51.976;9.834;2024-01-10T13:20:19;2.90;72.70
75824;DHT22;64457;51.976;9.834;2024-01-10T13:22:48;3.00;73.20
75824;DHT22;64457;51.976;9.834;2024-01-10T13:25:18;3.30;71.90
75824;DHT22;64457;51.976;9.834;2024-01-10T13:27:49;3.30;71.90
75824;DHT22;64457;51.976;9.834;2024-01-10T13:30:17;3.40;70.90
75824;DHT22;64457;51.976;9.834;2024-01-10T13:32:46;3.50;67.30
75824;DHT22;64457;51.976;9.834;2024-01-10T13:35:14;3.40;69.80
75824;DHT22;64457;51.976;9.834;2024-01-10T13:37:43;3.50;70.30
75824;DHT22;64457;51.976;9.834;2024-01-10T13:40:12;3.50;71.70
75824;DHT22;64457;51.976;9.834;2024-01-10T13:42:42;3.60;71.80
75824;DHT22;64457;51.976;9.834;2024-01-10T13:45:11;3.60;69.90
75824;DHT22;64457;51.976;9.834;2024-01-10T13:47:39;3.70;71.80
75824;DHT22;64457;51.976;9.834;2024-01-10T13:50:08;3.60;71.30
75824;DHT22;64457;51.976;9.834;2024-01-10T13:52:36;3.60;70.80
75824;DHT22;64457;51.976;9.834;2024-01-10T13:55:06;3.60;70.70
75824;DHT22;64457;51.976;9.834;2024-01-10T13:57:35;3.60;69.40
75824;DHT22;64457;51.976;9.834;2024-01-10T14:00:06;3.50;69.80
75824;DHT22;64457;51.976;9.834;2024-01-10T14:02:35;3.50;69.60
75824;DHT22;64457;51.976;9.834;2024-01-10T14:05:03;3.40;70.20
75824;DHT22;64457;51.976;9.834;2024-01-10T14:07:33;3.20;70.00
75824;DHT22;64457;51.976;9.834;2024-01-10T14:10:01;3.00;69.00
75824;DHT22;64457;51.976;9.834;2024-01-10T14:12:29;2.80;69.00
75824;DHT22;64457;51.976;9.834;2024-01-10T14:14:57;2.50;69.20
75824;DHT22;64457;51.976;9.834;2024-01-10T14:17:27;2.50;70.50
75824;DHT22;64457;51.976;9.834;2024-01-10T14:19:55;2.50;71.20
75824;DHT22;64457;51.976;9.834;2024-01-10T14:22:23;2.40;70.90
75824;DHT22;64457;51.976;9.834;2024-01-10T14:24:51;2.40;71.20
75824;DHT22;64457;51.976;9.834;2024-01-10T14:27:20;2.30;71.20
75824;DHT22;64457;51.976;9.834;2024-01-10T14:29:48;2.40;71.70
75824;DHT22;64457;51.976;9.834;2024-01-10T14:32:16;2.20;71.40
75824;DHT22;64457;51.976;9.834;2024-01-10T14:34:48;2.30;72.00
75824;DHT22;64457;51.976;9.834;2024-01-10T14:37:16;2.20;71.60
75824;DHT22;64457;51.976;9.834;2024-01-10T14:39:44;2.30;70.80
75824;DHT22;64457;51.976;9.834;2024-01-10T14:42:11;2.20;71.20
75824;DHT22;64457;51.976;9.834;2024-01-10T14:44:39;2.40;70.90
75824;DHT22;64457;51.976;9.834;2024-01-10T14:47:07;2.20;69.80
75824;DHT22;64457;51.976;9.834;2024-01-10T14:49:34;2.30;70.40
75824;DHT22;64457;51.976;9.834;2024-01-10T14:52:05;2.30;69.90
75824;DHT22;64457;51.976;9.834;2024-01-10T14:54:33;2.20;69.80
75824;DHT22;64457;51.976;9.834;2024-01-10T14:57:01;2.20;69.80
75824;DHT22;64457;51.976;9.834;2024-01-10T14:59:29;1.90;69.70
75824;DHT22;64457;51.976;9.834;2024-01-10T15:01:57;1.80;69.60
75824;DHT22;64457;51.976;9.834;2024-01-10T15:04:25;1.80;69.90
75824;DHT22;64457;51.976;9.834;2024-01-10T15:06:56;1.80;70.20
75824;DHT22;64457;51.976;9.834;2024-01-10T15:09:28;1.80;70.60
75824;DHT22;64457;51.976;9.834;2024-01-10T15:11:56;1.80;70.00
75824;DHT22;64457;51.976;9.834;2024-01-10T15:14:24;1.80;69.70
75824;DHT22;64457;51.976;9.834;2024-01-10T15:16:52;1.90;69.50
75824;DHT22;64457;51.976;9.834;2024-01-10T15:19:23;1.80;68.90
75824;DHT22;64457;51.976;9.834;2024-01-10T15:21:50;1.90;69.70
75824;DHT22;64457;51.976;9.834;2024-01-10T15:24:23;1.80;70.40
75824;DHT22;64457;51.976;9.834;2024-01-10T15:26:53;1.80;70.80
75824;DHT22;64457;51.976;9.834;2024-01-10T15:29:22;1.70;71.10
75824;DHT22;64457;51.976;9.834;2024-01-10T15:31:50;1.70;71.30
75824;DHT22;64457;51.976;9.834;2024-01-10T15:34:18;1.40;71.40
75824;DHT22;64457;51.976;9.834;2024-01-10T15:36:46;1.30;72.50
75824;DHT22;64457;51.976;9.834;2024-01-10T15:39:14;1.20;72.60
75824;DHT22;64457;51.976;9.834;2024-01-10T15:41:42;1.00;72.80
75824;DHT22;64457;51.976;9.834;2024-01-10T15:44:13;1.00;72.60
75824;DHT22;64457;51.976;9.834;2024-01-10T15:46:41;1.00;72.30
75824;DHT22;64457;51.976;9.834;2024-01-10T15:49:08;1.00;71.30
75824;DHT22;64457;51.976;9.834;2024-01-10T15:51:37;1.00;71.50